KEDC Airport Information

Runway Information
Airport Frequencies
Airport Navaids
Airport Weather Information & NOTAM
ADDS - METARS form results

(0712 UTC 30 July 2021)
Data provider http://aviationweather.gov/metar/data/
 
METAR text: KEDC 300655Z AUTO 00000KT 7SM 25/23 A3003 RMK AO2
Conditions at: KEDC (AUSTIN EXEC , TX, US) observed 0655 UTC 30 July 2021
Temperature: 25.0°C (77°F)
Dewpoint: 23.0°C (73°F) [RH = 89%]
Pressure (altimeter): 30.03 inches Hg (1017.0 mb)
Winds: calm
Visibility: 7 miles (11 km)
Ceiling: unknown
Clouds: missing
Weather: automated observation with no human augmentation;
there may or may not be significant weather present at this time

METAR text: KEDC 300635Z AUTO 00000KT 7SM 25/23 A3002 RMK AO2
Conditions at: KEDC (AUSTIN EXEC , TX, US) observed 0635 UTC 30 July 2021
Temperature: 25.0°C (77°F)
Dewpoint: 23.0°C (73°F) [RH = 89%]
Pressure (altimeter): 30.02 inches Hg (1016.7 mb)
Winds: calm
Visibility: 7 miles (11 km)
Ceiling: unknown
Clouds: missing
Weather: automated observation with no human augmentation;
there may or may not be significant weather present at this time

METAR text: KEDC 300615Z AUTO 00000KT 8SM 25/23 A3003 RMK AO2
Conditions at: KEDC (AUSTIN EXEC , TX, US) observed 0615 UTC 30 July 2021
Temperature: 25.0°C (77°F)
Dewpoint: 23.0°C (73°F) [RH = 89%]
Pressure (altimeter): 30.03 inches Hg (1017.0 mb)
Winds: calm
Visibility: 8 miles (13 km)
Ceiling: unknown
Clouds: missing
Weather: automated observation with no human augmentation;
there may or may not be significant weather present at this time